Atlanta, GA (30314)

7:07 AM EST on November 28, 2014 (GMT -0500)
Grant Park | Change Station
CLOSE
Current Station
Personal Weather Station
Location: Atlanta, GA
Elevation: 1050 ft
Nearby Weather Stations

Elev 1050 ft 33.74 °N, 84.37 °W | Updated 2 minutes ago

Clear
Clear
29.8 °F
Feels Like 30 °F
N
0.0
Wind Variable Wind from NNW
Gusts 3.0 mph

Today
High -- | Low -- °F
--% Chance of Precip.
Yesterday
High -- | Low -- °F
Precip. -- in
7:21 AM 5:29 PM
Waxing Crescent, 39% visible
Pressure 30.41 in
Visibility 10.0 miles
Clouds Clear
Windchill 30 °F
Dew Point 21 °F
Humidity 70%
Rainfall 0.00 in
Snow Depth Not available.
UV 0 out of 12
Pollen 1.60 out of 12
Air Quality Not available.
Flu Activity Not available.
METAR KFTY 281153Z 33003KT 10SM CLR M02/M07 A3039 RMK AO2 SLP296 T10221067 10006 21022 53003

More Conditions Fewer Conditions

Pressure 30.41 in
Visibility 10.0 miles
Clouds Clear
Windchill 30 °F
Dew Point 21 °F
Humidity 70%
Rainfall 0.00 in
Snow Depth Not available.
UV 0 out of 12
Pollen 1.60 out of 12
Air Quality Not available.
Flu Activity Not available.
METAR KFTY 281153Z 33003KT 10SM CLR M02/M07 A3039 RMK AO2 SLP296 T10221067 10006 21022 53003

More Conditions Fewer Conditions

10-Day Weather Forecast

Almanac

Astronomy

Nov. 28, 2014 Rise Set
Actual Time
Civil Twilight
Nautical Twilight
Astronomical Twilight
Moon
Length of Visible Light
Length of Day
Tomorrow will be .
, % of the Moon is Illuminated

Today's Extremes

State Highs State Lows

Community

WunderPhotos

Upload Photos

1,774,198 photos uploaded!

WunderBlogs® & News

Nearby

Air Quality

  Air Quality AQ Index Pollutant
Not available.

Snow Depth

Station Depth Elevation

Earthquake Activity

City Distance Mag. Time & Date
Minimum magnitude displayed is 2.5.

Coastal Water Temperatures

Place Temperature

Nearby Weather Stations